This is the latest recevied weather packets stored in our database for station/object IQ8VX-3. If no packets are shown the sender has not sent any weather packets the latest 10 day(s).
| Time | Temp. | Humidity | Pressure | Rain* | Wind** | Luminosity | Snow |
|---|---|---|---|---|---|---|---|
| 1777329342 | 13.89° C | 96% | 1691.7 hPa | - | - | - | - |
| 1777328142 | 14.44° C | 95% | 1692.7 hPa | - | - | - | - |
| 1777326942 | 14.44° C | 95% | 1693.3 hPa | - | - | - | - |
| 1777325741 | 14.44° C | 94% | 1692.9 hPa | - | - | - | - |
| 1777324541 | 14.44° C | 94% | 1693 hPa | - | - | - | - |
| 1777323341 | 14.44° C | 93% | 1693.4 hPa | - | - | - | - |
| 1777322140 | 14.44° C | 92% | 1693.7 hPa | - | - | - | - |
| 1777320940 | 14.44° C | 91% | 1693.2 hPa | - | - | - | - |
| 1777319740 | 14.44° C | 91% | 1693.6 hPa | - | - | - | - |
| 1777318540 | 14.44° C | 90% | 1693.6 hPa | - | - | - | - |
| 1777317339 | 14.44° C | 89% | 1693.1 hPa | - | - | - | - |
| 1777316139 | 14.44° C | 88% | 1693.7 hPa | - | - | - | - |
| 1777314939 | 15° C | 88% | 1695.1 hPa | - | - | - | - |
| 1777313738 | 15.56° C | 88% | 1696.8 hPa | - | - | - | - |
| 1777312538 | 16.67° C | 88% | 1699 hPa | - | - | - | - |
| 1777311338 | 17.22° C | 88% | 1700.4 hPa | - | - | - | - |
| 1777310137 | 17.22° C | 85% | 1701.3 hPa | - | - | - | - |
| 1777308937 | 17.78° C | 84% | 1702.2 hPa | - | - | - | - |
| 1777307737 | 18.89° C | 81% | 1704.4 hPa | - | - | - | - |
| 1777306536 | 18.89° C | 80% | 1704.5 hPa | - | - | - | - |
| 1777305336 | 19.44° C | 79% | 1705.6 hPa | - | - | - | - |
| 1777304136 | 20° C | 77% | 1707.6 hPa | - | - | - | - |
| 1777302936 | 20° C | 76% | 1707.8 hPa | - | - | - | - |
| 1777301735 | 20.56° C | 74% | 1708.6 hPa | - | - | - | - |
| 1777300535 | 20.56° C | 75% | 1708.8 hPa | - | - | - | - |
* Rain since midnight (hover to see other rain measurements)
** Current wind speed in m/s (hover to see current wind gust speed)